createdAt,value
2019-02-12T00:00:16.229Z,10.70
2019-02-12T00:02:44.479Z,16.45
2019-02-12T00:05:12.741Z,16.85
2019-02-12T00:07:40.994Z,12.58
2019-02-12T00:10:09.230Z,11.28
2019-02-12T00:12:37.496Z,12.60
2019-02-12T00:15:06.542Z,11.78
2019-02-12T00:17:34.794Z,10.48
2019-02-12T00:20:03.090Z,11.20
2019-02-12T00:22:31.342Z,13.68
2019-02-12T00:24:59.610Z,14.78
2019-02-12T00:27:27.862Z,11.93
2019-02-12T00:29:56.143Z,14.58
2019-02-12T00:32:24.389Z,11.05
2019-02-12T00:34:52.637Z,15.68
2019-02-12T00:37:20.876Z,12.65
2019-02-12T00:39:49.125Z,12.23
2019-02-12T00:42:17.388Z,14.98
2019-02-12T00:44:45.647Z,14.43
2019-02-12T00:47:13.896Z,10.15
2019-02-12T00:49:42.146Z,12.98
2019-02-12T00:52:10.424Z,20.70
2019-02-12T00:54:38.672Z,17.95
2019-02-12T00:57:06.919Z,12.63
2019-02-12T00:59:35.170Z,13.38
2019-02-12T01:02:03.432Z,17.12
2019-02-12T01:04:31.680Z,13.03
2019-02-12T01:06:59.927Z,13.70
2019-02-12T01:09:28.180Z,16.15
2019-02-12T01:11:56.428Z,15.48
2019-02-12T01:14:24.674Z,17.57
2019-02-12T01:16:52.909Z,13.68
2019-02-12T01:19:21.178Z,18.92
2019-02-12T01:21:49.423Z,9.98
2019-02-12T01:24:17.669Z,16.20
2019-02-12T01:26:45.950Z,15.23
2019-02-12T01:29:14.255Z,16.35
2019-02-12T01:31:42.493Z,16.70
2019-02-12T01:34:10.750Z,13.98
2019-02-12T01:36:38.995Z,17.37
2019-02-12T01:39:10.233Z,17.15
2019-02-12T01:41:38.499Z,14.05
2019-02-12T01:44:06.753Z,15.98
2019-02-12T01:46:35.001Z,24.65
2019-02-12T01:49:03.274Z,19.65
2019-02-12T01:51:35.123Z,22.52
2019-02-12T01:54:01.651Z,19.45
2019-02-12T01:56:29.921Z,14.47
2019-02-12T01:58:58.158Z,15.55
2019-02-12T02:01:26.403Z,16.97
2019-02-12T02:03:54.667Z,18.25
2019-02-12T02:06:22.902Z,21.17
2019-02-12T02:08:51.168Z,13.68
2019-02-12T02:11:19.399Z,17.77
2019-02-12T02:13:47.659Z,16.52
2019-02-12T02:16:15.894Z,14.85
2019-02-12T02:18:44.177Z,18.52
2019-02-12T02:21:12.425Z,15.70
2019-02-12T02:23:40.707Z,19.70
2019-02-12T02:26:08.963Z,23.38
2019-02-12T02:28:37.208Z,21.02
2019-02-12T02:31:05.458Z,15.70
2019-02-12T02:33:33.693Z,13.93
2019-02-12T02:36:01.955Z,21.07
2019-02-12T02:38:30.209Z,29.92
2019-02-12T02:40:58.440Z,21.50
2019-02-12T02:43:26.696Z,12.20
2019-02-12T02:45:54.929Z,18.82
2019-02-12T02:48:23.196Z,16.93
2019-02-12T02:50:51.449Z,26.95
2019-02-12T02:53:19.677Z,13.55
2019-02-12T02:55:47.932Z,21.68
2019-02-12T02:58:16.182Z,22.93
2019-02-12T03:00:44.428Z,15.93
2019-02-12T03:03:12.709Z,16.95
2019-02-12T03:05:40.948Z,17.67
2019-02-12T03:08:09.182Z,23.32
2019-02-12T03:10:37.431Z,13.05
2019-02-12T03:13:05.685Z,15.83
2019-02-12T03:15:33.957Z,20.23
2019-02-12T03:18:02.282Z,14.63
2019-02-12T03:20:30.547Z,18.42
2019-02-12T03:22:58.792Z,19.95
2019-02-12T03:25:27.065Z,17.35
2019-02-12T03:27:55.300Z,17.17
2019-02-12T03:30:23.566Z,17.17
2019-02-12T03:32:51.815Z,20.00
2019-02-12T03:35:20.117Z,19.85
2019-02-12T03:37:48.350Z,18.73
2019-02-12T03:40:16.602Z,14.68
2019-02-12T03:42:44.833Z,15.32
2019-02-12T03:45:13.617Z,12.75
2019-02-12T03:47:41.884Z,13.10
2019-02-12T03:50:11.429Z,13.83
2019-02-12T03:52:39.840Z,9.80
2019-02-12T03:55:10.406Z,17.98
2019-02-12T03:57:38.646Z,16.90
2019-02-12T04:00:10.166Z,16.75
2019-02-12T04:02:40.021Z,15.20
2019-02-12T04:05:08.290Z,20.20
2019-02-12T04:07:36.542Z,19.25
2019-02-12T04:10:06.076Z,11.93
2019-02-12T04:12:34.378Z,17.25
2019-02-12T04:15:02.657Z,20.40
2019-02-12T04:17:30.889Z,19.75
2019-02-12T04:19:59.173Z,10.53
2019-02-12T04:22:27.400Z,17.30
2019-02-12T04:24:55.649Z,15.23
2019-02-12T04:27:23.891Z,18.25
2019-02-12T04:29:52.133Z,17.37
2019-02-12T04:32:20.397Z,17.40
2019-02-12T04:34:48.617Z,17.48
2019-02-12T04:37:16.887Z,17.77
2019-02-12T04:39:45.150Z,16.20
2019-02-12T04:42:13.432Z,20.92
2019-02-12T04:44:41.692Z,16.65
2019-02-12T04:47:09.923Z,19.82
2019-02-12T04:49:38.193Z,21.27
2019-02-12T04:52:06.439Z,16.55
2019-02-12T04:54:34.689Z,11.90
2019-02-12T04:57:02.943Z,18.50
2019-02-12T04:59:31.194Z,15.30
2019-02-12T05:01:59.420Z,22.45
2019-02-12T05:04:27.696Z,19.02
2019-02-12T05:06:55.933Z,24.07
2019-02-12T05:09:24.187Z,16.10
2019-02-12T05:11:53.059Z,18.55
2019-02-12T05:14:21.389Z,26.33
2019-02-12T05:16:49.622Z,19.87
2019-02-12T05:19:17.868Z,13.28
2019-02-12T05:21:46.117Z,21.33
2019-02-12T05:24:14.369Z,17.40
2019-02-12T05:26:42.599Z,14.87
2019-02-12T05:29:10.862Z,13.62
2019-02-12T05:31:39.123Z,26.45
2019-02-12T05:34:07.363Z,30.48
2019-02-12T05:36:35.616Z,26.10
2019-02-12T05:39:04.635Z,22.87
2019-02-12T05:41:32.945Z,24.47
2019-02-12T05:44:01.215Z,21.42
2019-02-12T05:46:29.445Z,14.95
2019-02-12T05:48:57.710Z,20.08
2019-02-12T05:51:25.943Z,25.48
2019-02-12T05:53:54.200Z,23.65
2019-02-12T05:56:22.452Z,20.27
2019-02-12T05:58:50.691Z,19.07
2019-02-12T06:01:19.409Z,20.10
2019-02-12T06:03:47.680Z,27.48
2019-02-12T06:06:17.163Z,18.40
2019-02-12T06:08:45.659Z,26.68
2019-02-12T06:11:13.920Z,16.77
2019-02-12T06:13:42.150Z,21.65
2019-02-12T06:16:10.406Z,17.17
2019-02-12T06:18:38.655Z,29.10
2019-02-12T06:21:06.916Z,21.48
2019-02-12T06:23:35.167Z,22.55
2019-02-12T06:26:03.429Z,26.42
2019-02-12T06:28:31.659Z,34.50
2019-02-12T06:30:59.921Z,22.98
2019-02-12T06:33:28.219Z,26.93
2019-02-12T06:35:56.471Z,22.85
2019-02-12T06:38:24.704Z,26.70
2019-02-12T06:40:52.958Z,21.70
2019-02-12T06:43:21.214Z,27.58
2019-02-12T06:45:49.469Z,22.07
2019-02-12T06:48:17.820Z,25.08
2019-02-12T06:50:46.081Z,37.70
2019-02-12T06:53:14.336Z,26.15
2019-02-12T06:55:42.593Z,21.60
2019-02-12T06:58:10.847Z,22.80
2019-02-12T07:00:39.078Z,36.42
2019-02-12T07:03:11.646Z,25.30
2019-02-12T07:05:43.313Z,22.90
2019-02-12T07:08:37.348Z,77.82
2019-02-12T07:11:20.853Z,65.42
2019-02-12T07:14:09.105Z,24.20
2019-02-12T07:16:43.273Z,41.10
2019-02-12T07:19:17.574Z,42.78
2019-02-12T07:21:51.950Z,41.90
2019-02-12T07:24:32.317Z,36.93
2019-02-12T07:27:06.764Z,33.02
2019-02-12T07:29:53.101Z,25.05
2019-02-12T07:32:33.274Z,28.32
2019-02-12T07:35:32.230Z,21.10
2019-02-12T07:38:15.900Z,20.90
2019-02-12T07:41:19.948Z,23.77
2019-02-12T07:43:55.642Z,22.48
2019-02-12T07:46:33.207Z,15.28
2019-02-12T07:49:10.542Z,15.23
2019-02-12T07:51:58.603Z,15.45
2019-02-12T07:54:32.940Z,16.62
2019-02-12T07:57:12.820Z,19.87
2019-02-12T07:59:47.125Z,18.02
2019-02-12T08:02:27.773Z,13.45
2019-02-12T08:05:04.662Z,14.68
2019-02-12T08:08:09.660Z,21.27
2019-02-12T08:10:52.983Z,15.70
2019-02-12T08:13:39.490Z,15.90
2019-02-12T08:16:13.543Z,15.45
2019-02-12T08:18:45.036Z,13.62
2019-02-12T08:21:22.636Z,15.32
2019-02-12T08:24:00.165Z,23.87
2019-02-12T08:26:48.379Z,22.02
2019-02-12T08:29:28.677Z,22.15
2019-02-12T08:32:31.575Z,18.62
2019-02-12T08:35:18.117Z,16.87
2019-02-12T08:38:07.977Z,25.40
2019-02-12T08:41:11.546Z,17.65
2019-02-12T08:44:19.012Z,19.90
2019-02-12T08:47:08.828Z,30.02
2019-02-12T08:49:51.708Z,18.77
2019-02-12T08:52:39.643Z,16.75
2019-02-12T08:55:31.769Z,52.73
2019-02-12T08:58:24.407Z,20.45
2019-02-12T09:00:58.617Z,20.97
2019-02-12T09:03:41.952Z,15.95
2019-02-12T09:06:37.812Z,12.73
2019-02-12T09:09:21.261Z,21.17
2019-02-12T09:12:15.242Z,17.30
2019-02-12T09:15:01.925Z,14.50
2019-02-12T09:20:17.924Z,22.32
2019-02-12T09:23:12.031Z,21.52
2019-02-12T09:25:46.234Z,15.20
2019-02-12T09:28:32.316Z,19.87
2019-02-12T09:31:36.748Z,11.97
2019-02-12T09:34:26.227Z,20.12
2019-02-12T09:37:00.221Z,29.15
2019-02-12T09:39:43.022Z,30.48
2019-02-12T09:42:37.414Z,16.42
2019-02-12T09:45:23.954Z,14.90
2019-02-12T09:47:58.054Z,14.33
2019-02-12T09:50:35.475Z,15.85
2019-02-12T09:53:35.888Z,14.83
2019-02-12T09:56:30.097Z,19.40
2019-02-12T09:59:10.388Z,9.90
2019-02-12T10:01:50.770Z,18.02
2019-02-12T10:04:22.274Z,19.52
2019-02-12T10:07:05.313Z,20.12
2019-02-12T10:09:42.534Z,22.30
2019-02-12T10:12:22.959Z,11.18
2019-02-12T10:15:00.661Z,17.35
2019-02-12T10:18:07.214Z,12.73
2019-02-12T10:20:59.797Z,17.12
2019-02-12T10:23:52.317Z,13.50
2019-02-12T10:26:26.536Z,15.80
2019-02-12T10:29:20.729Z,17.37
2019-02-12T10:31:48.086Z,13.58
2019-02-12T10:34:16.343Z,15.58
2019-02-12T10:36:44.609Z,11.48
2019-02-12T10:39:12.994Z,11.95
2019-02-12T10:41:41.253Z,10.70
2019-02-12T10:44:09.548Z,10.28
2019-02-12T10:46:37.819Z,11.35
2019-02-12T10:49:06.115Z,18.25
2019-02-12T10:51:34.358Z,9.00
2019-02-12T10:54:02.611Z,19.50
2019-02-12T10:56:30.851Z,13.83
2019-02-12T10:58:59.116Z,12.80
2019-02-12T11:01:27.373Z,8.68
2019-02-12T11:03:55.627Z,8.43
2019-02-12T11:06:23.893Z,10.65
2019-02-12T11:08:52.130Z,9.33
2019-02-12T11:11:20.380Z,7.03
2019-02-12T11:13:48.706Z,15.85
2019-02-12T11:16:17.041Z,16.60
2019-02-12T11:18:45.271Z,9.08
2019-02-12T11:21:13.604Z,11.10
2019-02-12T11:23:41.852Z,13.95
2019-02-12T11:26:10.142Z,10.15
2019-02-12T11:28:38.393Z,14.45
2019-02-12T11:31:06.617Z,7.15
2019-02-12T11:33:34.872Z,9.70
2019-02-12T11:36:03.102Z,18.70
2019-02-12T11:38:31.347Z,7.53
2019-02-12T11:40:59.585Z,13.35
2019-02-12T11:43:27.852Z,12.55
2019-02-12T11:45:56.099Z,11.78
2019-02-12T11:48:24.360Z,9.80
2019-02-12T11:50:52.608Z,9.00
2019-02-12T11:53:20.837Z,10.65
2019-02-12T11:55:49.093Z,8.78
2019-02-12T11:58:17.326Z,12.00
2019-02-12T12:00:47.236Z,5.87
2019-02-12T12:03:15.495Z,12.37
2019-02-12T12:05:43.750Z,7.90
2019-02-12T12:08:11.997Z,13.08
2019-02-12T12:10:40.257Z,7.15
2019-02-12T12:13:08.510Z,13.05
2019-02-12T12:15:36.820Z,13.50
2019-02-12T12:18:05.080Z,9.53
2019-02-12T12:20:33.329Z,10.72
2019-02-12T12:23:01.593Z,9.70
2019-02-12T12:25:29.821Z,8.83
2019-02-12T12:27:58.141Z,12.60
2019-02-12T12:30:26.369Z,9.68
2019-02-12T12:32:56.420Z,7.37
2019-02-12T12:35:24.598Z,12.15
2019-02-12T12:37:52.833Z,8.53
2019-02-12T12:40:21.106Z,10.55
2019-02-12T12:42:49.368Z,11.05
2019-02-12T12:45:17.636Z,8.15
2019-02-12T12:47:45.940Z,12.98
2019-02-12T12:50:14.173Z,18.80
2019-02-12T12:52:42.415Z,7.90
2019-02-12T12:55:10.793Z,13.83
2019-02-12T12:57:41.821Z,8.08
2019-02-12T13:00:14.537Z,7.70
2019-02-12T13:02:42.772Z,15.80
2019-02-12T13:05:11.248Z,5.97
2019-02-12T13:07:39.653Z,7.25
2019-02-12T13:10:13.278Z,5.90
2019-02-12T13:12:41.867Z,6.62
2019-02-12T13:15:12.637Z,7.40
2019-02-12T13:17:40.902Z,5.25
2019-02-12T13:20:11.378Z,6.72
2019-02-12T13:22:39.694Z,9.35
2019-02-12T13:25:09.294Z,10.65
2019-02-12T13:27:37.561Z,5.40
2019-02-12T13:30:09.055Z,7.92
2019-02-12T13:32:37.434Z,6.90
2019-02-12T13:35:07.613Z,15.23
2019-02-12T13:37:35.858Z,7.80
2019-02-12T13:40:06.322Z,6.45
2019-02-12T13:42:34.549Z,6.70
2019-02-12T13:45:02.880Z,4.78
2019-02-12T13:47:31.106Z,5.92
2019-02-12T13:49:59.376Z,9.88
2019-02-12T13:52:27.614Z,9.88
2019-02-12T13:54:55.872Z,7.47
2019-02-12T13:57:24.098Z,8.55
2019-02-12T13:59:52.351Z,12.45
2019-02-12T14:02:20.750Z,16.45
2019-02-12T14:04:48.978Z,5.08
2019-02-12T14:07:17.245Z,6.75
2019-02-12T14:09:45.543Z,7.53
2019-02-12T14:12:13.802Z,9.00
2019-02-12T14:14:42.055Z,12.53
2019-02-12T14:17:10.313Z,6.12
2019-02-12T14:19:38.574Z,9.60
2019-02-12T14:22:06.817Z,9.35
2019-02-12T14:24:35.074Z,9.35
2019-02-12T14:27:03.330Z,8.88
2019-02-12T14:29:31.562Z,8.90
2019-02-12T14:31:59.815Z,11.05
2019-02-12T14:34:28.089Z,7.70
2019-02-12T14:36:56.454Z,10.18
2019-02-12T14:39:24.699Z,11.50
2019-02-12T14:41:52.953Z,16.70
2019-02-12T14:44:21.205Z,13.00
2019-02-12T14:46:49.471Z,8.68
2019-02-12T14:49:17.694Z,14.45
2019-02-12T14:51:45.952Z,11.18
2019-02-12T14:54:14.193Z,10.10
2019-02-12T14:56:42.453Z,5.08
2019-02-12T14:59:10.700Z,10.28
2019-02-12T15:01:38.946Z,6.25
2019-02-12T15:04:07.204Z,14.78
2019-02-12T15:06:35.529Z,7.65
2019-02-12T15:09:04.802Z,11.85
2019-02-12T15:11:33.068Z,10.28
2019-02-12T15:14:01.306Z,12.43
2019-02-12T15:16:29.589Z,4.85
2019-02-12T15:18:57.818Z,8.65
2019-02-12T15:21:26.070Z,10.60
2019-02-12T15:23:54.327Z,6.87
2019-02-12T15:26:22.679Z,7.83
2019-02-12T15:28:51.163Z,11.63
2019-02-12T15:31:19.564Z,14.80
2019-02-12T15:33:47.808Z,13.05
2019-02-12T15:36:16.077Z,10.23
2019-02-12T15:38:44.382Z,8.68
2019-02-12T15:41:12.642Z,9.65
2019-02-12T15:43:40.889Z,8.88
2019-02-12T15:46:09.360Z,8.53
2019-02-12T15:48:37.842Z,7.30
2019-02-12T15:51:06.077Z,11.35
2019-02-12T15:53:34.341Z,5.62
2019-02-12T15:56:02.569Z,9.45
2019-02-12T15:58:30.803Z,6.55
2019-02-12T16:00:59.061Z,7.15
2019-02-12T16:03:27.301Z,10.40
2019-02-12T16:05:57.297Z,8.93
2019-02-12T16:08:25.608Z,10.35
2019-02-12T16:10:55.164Z,7.05
2019-02-12T16:13:23.929Z,8.83
2019-02-12T16:15:52.421Z,6.33
2019-02-12T16:18:21.440Z,10.38
2019-02-12T16:20:50.636Z,7.47
2019-02-12T16:23:18.903Z,9.25
2019-02-12T16:25:47.193Z,14.35
2019-02-12T16:28:15.417Z,16.32
2019-02-12T16:30:43.650Z,11.30
2019-02-12T16:33:11.916Z,8.45
2019-02-12T16:35:40.175Z,12.93
2019-02-12T16:38:08.453Z,8.10
2019-02-12T16:40:36.679Z,12.13
2019-02-12T16:43:04.942Z,11.83
2019-02-12T16:45:48.040Z,11.85
2019-02-12T16:48:16.267Z,9.33
2019-02-12T16:50:44.498Z,17.35
2019-02-12T16:53:12.767Z,16.35
2019-02-12T16:55:40.993Z,9.50
2019-02-12T16:58:09.304Z,13.43
2019-02-12T17:00:37.575Z,12.43
2019-02-12T17:03:05.823Z,14.43
2019-02-12T17:05:34.066Z,18.23
2019-02-12T17:08:02.358Z,17.75
2019-02-12T17:10:30.641Z,14.73
2019-02-12T17:12:58.975Z,17.70
2019-02-12T17:15:27.341Z,13.25
2019-02-12T17:17:55.589Z,11.10
2019-02-12T17:20:26.516Z,18.20
2019-02-12T17:22:54.772Z,12.10
2019-02-12T17:25:23.032Z,12.85
2019-02-12T17:27:51.295Z,9.18
2019-02-12T17:30:19.526Z,14.10
2019-02-12T17:32:47.846Z,19.17
2019-02-12T17:35:16.096Z,12.93
2019-02-12T17:37:44.341Z,15.65
2019-02-12T17:40:16.819Z,14.40
2019-02-12T17:42:45.153Z,9.35
2019-02-12T17:45:17.513Z,12.15
2019-02-12T17:47:45.739Z,14.38
2019-02-12T17:50:14.710Z,16.45
2019-02-12T17:52:42.965Z,13.13
2019-02-12T17:55:11.498Z,13.55
2019-02-12T17:57:39.739Z,15.40
2019-02-12T18:00:14.790Z,10.85
2019-02-12T18:02:43.046Z,12.55
2019-02-12T18:05:11.307Z,13.03
2019-02-12T18:07:39.551Z,9.68
2019-02-12T18:10:10.176Z,13.62
2019-02-12T18:12:38.436Z,14.28
2019-02-12T18:15:09.420Z,8.13
2019-02-12T18:17:37.670Z,12.03
2019-02-12T18:20:11.266Z,14.63
2019-02-12T18:22:40.220Z,12.82
2019-02-12T18:25:09.912Z,9.03
2019-02-12T18:27:38.413Z,15.78
2019-02-12T18:30:16.631Z,8.83
2019-02-12T18:32:44.891Z,18.07
2019-02-12T18:35:13.133Z,13.62
2019-02-12T18:37:41.393Z,10.18
2019-02-12T18:40:14.400Z,12.30
2019-02-12T18:42:42.655Z,29.70
2019-02-12T18:45:22.127Z,39.60
2019-02-12T18:47:50.431Z,38.28
2019-02-12T18:50:18.711Z,14.13
2019-02-12T18:52:46.993Z,14.18
2019-02-12T18:55:16.199Z,14.70
2019-02-12T18:57:44.460Z,11.73
2019-02-12T19:00:15.629Z,9.38
2019-02-12T19:02:43.870Z,8.80
2019-02-12T19:05:12.122Z,14.35
2019-02-12T19:07:40.366Z,11.28
2019-02-12T19:10:11.046Z,11.48
2019-02-12T19:12:39.299Z,11.60
2019-02-12T19:15:10.729Z,23.73
2019-02-12T19:17:39.034Z,13.25
2019-02-12T19:20:10.625Z,24.60
2019-02-12T19:22:38.863Z,16.30
2019-02-12T19:25:09.348Z,19.52
2019-02-12T19:27:37.603Z,18.23
2019-02-12T19:30:12.081Z,22.07
2019-02-12T19:32:40.523Z,15.80
2019-02-12T19:35:10.382Z,22.75
2019-02-12T19:37:38.686Z,17.95
2019-02-12T19:40:09.542Z,18.90
2019-02-12T19:42:37.791Z,25.70
2019-02-12T19:45:11.970Z,15.80
2019-02-12T19:47:40.209Z,17.62
2019-02-12T19:50:09.700Z,16.05
2019-02-12T19:52:38.139Z,19.10
2019-02-12T19:55:08.675Z,14.93
2019-02-12T19:57:36.931Z,16.73
2019-02-12T20:00:09.849Z,12.65
2019-02-12T20:02:38.096Z,18.60
2019-02-12T20:05:09.192Z,18.27
2019-02-12T20:07:37.594Z,15.63
2019-02-12T20:10:08.640Z,13.00
2019-02-12T20:12:36.873Z,12.23
2019-02-12T20:15:08.625Z,16.62
2019-02-12T20:17:36.898Z,17.57
2019-02-12T20:20:08.081Z,17.95
2019-02-12T20:22:36.317Z,14.35
2019-02-12T20:25:05.559Z,9.60
2019-02-12T20:27:35.977Z,16.52
2019-02-12T20:30:05.830Z,16.37
2019-02-12T20:32:34.086Z,14.35
2019-02-12T20:35:02.339Z,15.45
2019-02-12T20:37:30.578Z,10.98
2019-02-12T20:39:58.845Z,14.13
2019-02-12T20:42:27.160Z,13.30
2019-02-12T20:44:55.413Z,20.80
2019-02-12T20:47:23.669Z,14.43
2019-02-12T20:49:51.926Z,17.12
2019-02-12T20:52:20.176Z,13.90
2019-02-12T20:54:48.439Z,11.75
2019-02-12T20:57:16.703Z,14.98
2019-02-12T20:59:45.100Z,10.60
2019-02-12T21:02:13.352Z,13.68
2019-02-12T21:04:41.586Z,14.98
2019-02-12T21:07:09.884Z,13.50
2019-02-12T21:09:38.130Z,15.20
2019-02-12T21:12:06.378Z,18.37
2019-02-12T21:14:34.639Z,17.35
2019-02-12T21:17:03.036Z,14.93
2019-02-12T21:19:31.413Z,18.23
2019-02-12T21:21:59.660Z,14.63
2019-02-12T21:24:27.913Z,17.52
2019-02-12T21:26:56.163Z,20.00
2019-02-12T21:29:24.417Z,14.73
2019-02-12T21:31:52.675Z,16.32
2019-02-12T21:34:20.979Z,14.58
2019-02-12T21:36:49.206Z,17.62
2019-02-12T21:39:19.128Z,15.95
2019-02-12T21:41:47.372Z,14.73
2019-02-12T21:44:15.656Z,20.32
2019-02-12T21:46:43.924Z,19.50
2019-02-12T21:49:12.195Z,14.05
2019-02-12T21:51:40.447Z,14.93
2019-02-12T21:54:08.728Z,15.95
2019-02-12T21:56:36.971Z,20.17
2019-02-12T21:59:05.224Z,18.60
2019-02-12T22:01:33.490Z,20.52
2019-02-12T22:04:01.726Z,18.42
2019-02-12T22:06:30.006Z,17.20
2019-02-12T22:08:58.233Z,14.75
2019-02-12T22:11:26.506Z,15.25
2019-02-12T22:13:54.749Z,11.93
2019-02-12T22:16:23.032Z,14.58
2019-02-12T22:18:51.270Z,13.28
2019-02-12T22:21:19.534Z,14.10
2019-02-12T22:23:47.786Z,23.35
2019-02-12T22:26:16.033Z,13.75
2019-02-12T22:28:44.300Z,13.18
2019-02-12T22:31:12.605Z,13.48
2019-02-12T22:33:40.876Z,12.60
2019-02-12T22:36:09.139Z,16.32
2019-02-12T22:38:37.388Z,17.12
2019-02-12T22:41:05.649Z,17.42
2019-02-12T22:43:33.877Z,18.40
2019-02-12T22:46:03.921Z,20.43
2019-02-12T22:48:32.175Z,18.02
2019-02-12T22:51:00.433Z,10.28
2019-02-12T22:53:28.755Z,18.52
2019-02-12T22:55:56.997Z,16.60
2019-02-12T22:58:25.264Z,15.83
2019-02-12T23:00:57.235Z,19.48
2019-02-12T23:03:25.820Z,17.07
2019-02-12T23:05:54.050Z,17.35
2019-02-12T23:08:22.315Z,14.33
2019-02-12T23:10:50.574Z,17.55
2019-02-12T23:13:18.817Z,17.37
2019-02-12T23:15:47.098Z,14.93
2019-02-12T23:18:15.369Z,18.80
2019-02-12T23:20:43.603Z,15.93
2019-02-12T23:23:11.877Z,18.35
2019-02-12T23:25:40.127Z,18.92
2019-02-12T23:28:08.391Z,22.62
2019-02-12T23:30:36.670Z,19.40
2019-02-12T23:33:04.918Z,13.50
2019-02-12T23:35:33.181Z,17.32
2019-02-12T23:38:01.420Z,13.00
2019-02-12T23:40:29.653Z,19.42
2019-02-12T23:42:57.920Z,13.50
2019-02-12T23:45:26.217Z,16.85
2019-02-12T23:47:54.451Z,16.07
2019-02-12T23:50:22.689Z,13.08
2019-02-12T23:52:50.955Z,11.88
2019-02-12T23:55:19.199Z,12.30
2019-02-12T23:57:47.456Z,17.62
